Ana Sayfa
METAR-TAF:

METAR-TAF

Havaalanları :

Harry Clever Field

New Philadelphia, Ohio, Amerika Birleşik Devletleri

Enlem: 40-28-19N, Boylam: 081-25-25W, yükseklik: 272 m

Güncel hava durumu gözlemi

Rapor saat 20:45 UTC de 17 dakika önce yapıldı.
Rüzgar batı/güneybatıdan 4 kt
Sıcaklık 26°C
Nem 84%
Basınç 1012 hPa
Görüş mesafesi: 16.1 km
1700 ft yükseklikte parçalı bulutlu
2700 ft yükseklikte parçalı çok bulutlu
hafif yağmur

METAR: KPHD 172045Z AUTO 24004KT 10SM -RA SCT017 BKN027 26/23 A2989 RMK AO2 RAB34 P0000 T02610228

Saat: 17:02 (21:02 UTC)


TAF: eksik

4.000'den fazla havaalanı için hava durumu gözlemleri ve tahminleri (METAR ve TAF raporları).

Kullanılabilir istasyonlar harita üzerinde sarı ve kırmızı noktalarla gösterilir.

İstasyonun adını görmek için fareyi noktanın üzerinde gezdirin.

Sonrasında hava gözlem ve tahminlerini görmek için tıklayın.

Haritayı değiştirmek için: yaklaştırmak için siyah artı işaretli yeşil düğmeye ve uzaklaştırmak için de eksi işaretli düğmeye hızla tıklayın; bitişik haritalar için yeşil okları kullanın.


METAR-TAF: